K4ZZR Weather Reports


time (UTC)temp
F
wind
direction
speed
knots
gust
knots
rain 1hr
in
rain 24hr
in
rain mn
in
humidity
%
barometer
mb
20260507200042 88 160 5.2 9.6 0.00 0.00 0.00 70 1013.4
20260507195539 88 117 3.5 8.7 0.00 0.00 0.00 71 1013.5
20260507195037 87 111 6.1 6.1 0.00 0.00 0.00 71 1013.5
20260507194533 88 114 3.5 6.1 0.00 0.00 0.00 71 1013.4
20260507194029 88 107 4.3 5.2 0.00 0.00 0.00 70 1013.4
20260507193526 89 154 3.5 7.0 0.00 0.00 0.00 61 1013.5
20260507193023 87 275 1.7 5.2 0.00 0.00 0.00 68 1013.8
20260507192519 88 155 4.3 7.8 0.00 0.00 0.00 68 1013.7
20260507192016 89 166 1.7 6.1 0.00 0.00 0.00 65 1013.9
20260507191511 88 239 0.9 8.7 0.00 0.00 0.00 69 1013.8
20260507191009 89 8 2.6 7.0 0.00 0.00 0.00 68 1014.1
20260507190506 90 268 0.0 4.3 0.00 0.00 0.00 62 1014.0
20260507190006 89 179 2.6 4.3 0.00 0.00 0.00 68 1014.2
20260507185502 88 227 1.7 3.5 0.00 0.00 0.00 62 1014.1
20260507184959 89 305 3.5 5.2 0.00 0.00 0.00 68 1014.4
20260507184457 89 58 1.7 2.6 0.00 0.00 0.00 67 1014.6
20260507183955 88 127 2.6 9.6 0.00 0.00 0.00 68 1014.5
20260507183450 92 328 1.7 4.3 0.00 0.00 0.00 52 1014.7
20260507182948 91 247 4.3 9.6 0.00 0.00 0.00 55 1014.8
20260507182444 90 233 2.6 6.1 0.00 0.00 0.00 56 1014.7
20260507181940 89 233 1.7 2.6 0.00 0.00 0.00 58 1015.0
20260507181436 89 264 2.6 9.6 0.00 0.00 0.00 58 1014.9
20260507180933 90 230 6.1 9.6 0.00 0.00 0.00 55 1014.9
20260507180430 90 234 2.6 5.2 0.00 0.00 0.00 56 1014.6
20260507175926 90 273 2.6 7.0 0.00 0.00 0.00 57 1014.7
20260507175423 90 277 4.3 7.8 0.00 0.00 0.00 58 1014.7
20260507174921 89 310 2.6 9.6 0.00 0.00 0.00 60 1014.8
20260507174418 89 245 5.2 6.1 0.00 0.00 0.00 57 1014.6
20260507173915 89 164 3.5 5.2 0.00 0.00 0.00 57 1014.9
20260507173412 89 241 2.6 5.2 0.00 0.00 0.00 58 1014.7
20260507172908 89 274 1.7 7.0 0.00 0.00 0.00 61 1014.8
20260507172405 88 248 4.3 9.6 0.00 0.00 0.00 60 1015.2
20260507171901 88 216 6.1 8.7 0.00 0.00 0.00 62 1015.0
20260507171358 88 251 1.7 11.3 0.00 0.00 0.00 61 1015.1
20260507170855 87 238 5.2 10.4 0.00 0.00 0.00 61 1015.1
20260507170351 89 246 4.3 12.2 0.00 0.00 0.00 60 1015.2
20260507165848 89 220 4.3 6.1 0.00 0.00 0.00 60 1015.0
20260507165344 88 255 1.7 7.8 0.00 0.00 0.00 62 1015.1
20260507164840 88 187 4.3 6.1 0.00 0.00 0.00 61 1015.3
20260507164337 87 176 3.5 7.8 0.00 0.00 0.00 61 1015.2
20260507163834 87 225 1.7 7.8 0.00 0.00 0.00 62 1015.4
20260507163331 87 251 0.0 9.6 0.00 0.00 0.00 62 1015.6
20260507162828 87 248 10.4 10.4 0.00 0.00 0.00 63 1015.5
20260507162323 86 176 7.8 9.6 0.00 0.00 0.00 64 1015.5
20260507161820 86 234 3.5 9.6 0.00 0.00 0.00 66 1015.8
20260507161317 87 239 5.2 7.0 0.00 0.00 0.00 64 1015.7
20260507160814 87 210 3.5 7.0 0.00 0.00 0.00 64 1015.8
20260507160310 86 217 6.1 8.7 0.00 0.00 0.00 63 1016.0
20260507155806 86 195 2.6 7.0 0.00 0.00 0.00 64 1016.1
20260507155306 86 226 6.1 10.4 0.00 0.00 0.00 64 1016.1
20260507154758 86 194 2.6 7.0 0.00 0.00 0.00 63 1016.0
20260507154256 86 242 4.3 8.7 0.00 0.00 0.00 64 1016.0
20260507153752 85 271 3.5 7.8 0.00 0.00 0.00 65 1016.0
20260507153249 85 179 1.7 7.0 0.00 0.00 0.00 66 1016.1
20260507152746 85 198 2.6 7.0 0.00 0.00 0.00 66 1016.2
20260507152242 85 255 1.7 6.1 0.00 0.00 0.00 67 1016.1
20260507151738 84 245 3.5 8.7 0.00 0.00 0.00 68 1016.0
20260507151234 84 214 2.6 6.1 0.00 0.00 0.00 67 1016.2
20260507150731 85 208 3.5 7.8 0.00 0.00 0.00 65 1016.0
20260507150228 85 228 0.9 4.3 0.00 0.00 0.00 66 1016.2
20260507145724 84 259 2.6 7.0 0.00 0.00 0.00 67 1016.3
20260507145221 84 233 2.6 4.3 0.00 0.00 0.00 68 1016.3
20260507144718 83 208 3.5 7.0 0.00 0.00 0.00 69 1016.5
20260507144216 83 243 5.2 7.0 0.00 0.00 0.00 70 1016.4
20260507143712 83 252 1.7 4.3 0.00 0.00 0.00 72 1016.2
20260507143209 82 242 3.5 8.7 0.00 0.00 0.00 70 1016.3
20260507142705 82 235 6.1 9.6 0.00 0.00 0.00 70 1016.2
20260507142202 82 187 3.5 7.8 0.00 0.00 0.00 71 1016.2
20260507141658 82 314 2.6 6.1 0.00 0.00 0.00 74 1016.4
20260507141155 81 235 4.3 10.4 0.00 0.00 0.00 71 1016.5
20260507140651 81 237 4.3 11.3 0.00 0.00 0.00 74 1016.3
20260507140149 82 204 4.3 6.1 0.00 0.00 0.00 73 1016.7
20260507135646 81 228 5.2 12.2 0.00 0.00 0.00 75 1016.4
20260507135143 81 219 6.1 7.8 0.00 0.00 0.00 75 1016.4
20260507134639 80 234 3.5 9.6 0.00 0.00 0.00 77 1016.2
20260507134136 80 231 8.7 9.6 0.00 0.00 0.00 78 1016.5
20260507133632 79 226 5.2 10.4 0.00 0.00 0.00 80 1016.3
20260507133129 79 247 2.6 10.4 0.00 0.00 0.00 81 1016.5
20260507132626 80 212 1.7 6.1 0.00 0.00 0.00 81 1016.4
20260507132122 80 189 3.5 5.2 0.00 0.00 0.00 81 1016.3
20260507131619 79 209 2.6 5.2 0.00 0.00 0.00 82 1016.2
20260507131117 79 197 2.6 6.1 0.00 0.00 0.00 82 1016.6
20260507130613 78 169 5.2 7.0 0.00 0.00 0.00 83 1016.4
20260507130111 79 209 4.3 5.2 0.00 0.00 0.00 83 1016.3
20260507125610 78 184 1.7 7.8 0.00 0.00 0.00 85 1016.4
20260507125107 78 224 3.5 7.0 0.00 0.00 0.00 85 1016.3
20260507124603 77 220 4.3 6.1 0.00 0.00 0.00 85 1016.4
20260507124101 77 214 3.5 6.1 0.00 0.00 0.00 86 1016.3
20260507123559 77 235 2.6 6.1 0.00 0.00 0.00 87 1016.5
20260507123056 77 22 0.0 4.3 0.00 0.00 0.00 86 1016.5
20260507122551 76 219 2.6 5.2 0.00 0.00 0.00 87 1016.6
20260507122047 76 226 2.6 5.2 0.00 0.00 0.00 87 1016.6
20260507121542 77 249 0.9 1.7 0.00 0.00 0.00 86 1016.5
20260507121039 77 221 0.9 1.7 0.00 0.00 0.00 86 1016.2
20260507120535 76 224 0.9 2.6 0.00 0.00 0.00 87 1016.4
20260507120032 76 25 0.0 1.7 0.00 0.00 0.00 88 1016.4
20260507115528 75 299 0.9 2.6 0.00 0.00 0.00 89 1016.5
20260507115024 75 25 0.0 0.9 0.00 0.00 0.00 89 1016.4
20260507114520 73 287 1.7 1.7 0.00 0.00 0.00 91 1016.3
20260507114018 73 299 0.0 1.7 0.00 0.00 0.00 92 1016.1
20260507113515 72 324 0.0 1.7 0.00 0.00 0.00 93 1016.2
20260507113012 72 345 0.0 1.7 0.00 0.00 0.00 94 1016.3
20260507112510 71 325 0.0 1.7 0.00 0.00 0.00 95 1016.3
20260507112006 70 298 1.7 2.6 0.00 0.00 0.00 96 1016.4
20260507111504 70 338 1.7 2.6 0.00 0.00 0.00 97 1016.2
20260507110959 69 334 1.7 2.6 0.00 0.00 0.00 97 1016.3
20260507110456 69 338 1.7 2.6 0.00 0.00 0.00 98 1016.0
20260507105952 69 260 0.0 3.5 0.00 0.00 0.00 98 1015.9
20260507105449 69 318 2.6 3.5 0.00 0.00 0.00 98 1015.9
20260507104946 69 320 2.6 4.3 0.00 0.00 0.00 98 1015.8
20260507104443 69 280 0.9 4.3 0.00 0.00 0.00 98 1015.7
20260507103939 69 309 3.5 4.3 0.00 0.00 0.00 98 1015.3
20260507103436 69 269 1.7 4.3 0.00 0.00 0.00 98 1015.5
20260507102932 69 290 1.7 5.2 0.00 0.00 0.00 98 1015.3
20260507102429 70 347 1.7 2.6 0.00 0.00 0.00 98 1015.1
20260507101925 69 261 4.3 9.6 0.00 0.00 0.00 98 1015.1
20260507101420 69 202 0.0 1.7 0.00 0.00 0.00 98 1014.9
20260507100917 69 220 0.0 3.5 0.00 0.00 0.00 97 1014.9
20260507100415 70 268 1.7 2.6 0.00 0.00 0.00 97 1014.5
20260507095913 70 170 1.7 3.5 0.00 0.00 0.00 97 1014.4
20260507095409 70 99 0.9 1.7 0.00 0.00 0.00 97 1014.4
20260507094907 70 129 1.7 4.3 0.00 0.00 0.00 98 1014.5
20260507094403 69 129 1.7 3.5 0.00 0.00 0.00 99 1014.5
20260507093900 68 138 1.7 1.7 0.00 0.00 0.00 99 1014.6
20260507093358 68 52 0.0 0.9 0.00 0.00 0.00 99 1014.6
20260507092856 68 304 0.0 0.0 0.00 0.00 0.00 99 1014.4
20260507092352 68 41 0.0 0.9 0.00 0.00 0.00 99 1014.6
20260507091849 68 15 0.0 1.7 0.00 0.00 0.00 99 1014.4
20260507091345 69 168 0.9 2.6 0.00 0.00 0.00 99 1014.5
20260507090841 68 188 0.0 0.9 0.00 0.00 0.00 99 1014.5
20260507090337 68 64 0.0 1.7 0.00 0.00 0.00 99 1014.7
20260507085834 68 219 0.0 1.7 0.00 0.00 0.00 99 1014.4
20260507085331 68 210 0.9 1.7 0.00 0.00 0.00 99 1014.6
20260507084829 68 223 0.0 1.7 0.00 0.00 0.00 99 1014.3
20260507084325 68 240 0.0 1.7 0.00 0.00 0.00 99 1014.3
20260507083822 69 32 0.0 1.7 0.00 0.00 0.00 99 1014.5
20260507083319 68 37 0.0 0.9 0.00 0.00 0.00 98 1014.4
20260507082815 68 38 0.0 1.7 0.00 0.00 0.00 99 1014.5
20260507082310 69 230 0.0 1.7 0.00 0.00 0.00 98 1014.3
20260507081808 69 32 0.0 1.7 0.00 0.00 0.00 98 1014.4
20260507081304 69 48 1.7 2.6 0.00 0.00 0.00 98 1014.4
20260507080801 69 343 0.0 1.7 0.00 0.00 0.00 99 1014.5
20260507080257 69 217 0.0 0.9 0.00 0.00 0.00 98 1014.5
20260507075752 69 2 0.0 1.7 0.00 0.00 0.00 98 1014.4
20260507075248 69 36 0.0 0.9 0.00 0.00 0.00 98 1014.4
20260507074745 69 75 0.0 1.7 0.00 0.00 0.00 98 1014.7
20260507074243 69 322 0.0 1.7 0.00 0.00 0.00 97 1014.5
20260507073740 69 157 0.0 0.9 0.00 0.00 0.00 97 1014.4
20260507073236 69 192 0.0 0.9 0.00 0.00 0.00 97 1014.5
20260507072734 70 336 0.0 0.0 0.00 0.00 0.00 96 1014.6
20260507072231 70 250 0.0 0.9 0.00 0.00 0.00 96 1014.8
20260507071729 70 314 0.0 1.7 0.00 0.00 0.00 96 1014.7
20260507071225 70 305 1.7 1.7 0.00 0.00 0.00 96 1014.7
20260507070722 70 272 0.9 1.7 0.00 0.00 0.00 96 1015.0
20260507070219 70 230 0.0 0.0 0.00 0.00 0.00 96 1015.1
20260507065715 71 258 0.0 1.7 0.00 0.00 0.00 95 1015.1
20260507065212 71 242 0.0 1.7 0.00 0.00 0.00 95 1014.7
20260507064709 71 249 0.9 2.6 0.00 0.00 0.00 95 1015.0
20260507064209 71 219 0.0 1.7 0.00 0.00 0.00 94 1015.0
20260507063705 71 244 1.7 3.5 0.00 0.00 0.00 94 1014.9
20260507063202 72 242 0.9 2.6 0.00 0.00 0.00 93 1015.2
20260507062659 72 231 1.7 3.5 0.00 0.00 0.00 93 1015.1
20260507062156 72 243 3.5 3.5 0.00 0.00 0.00 92 1015.2
20260507061654 72 233 0.9 3.5 0.00 0.00 0.00 91 1015.3
20260507061152 72 258 0.9 4.3 0.00 0.00 0.00 91 1015.2
20260507060650 73 251 1.7 2.6 0.00 0.00 0.00 90 1015.4
20260507060146 73 238 1.7 2.6 0.00 0.00 0.00 88 1015.4
20260507055642 74 260 1.7 1.7 0.00 0.00 0.00 87 1015.4
20260507055138 74 258 1.7 1.7 0.00 0.00 0.00 87 1015.7
20260507054634 74 187 0.0 1.7 0.00 0.00 0.00 86 1015.6
20260507054131 74 187 0.0 1.7 0.00 0.00 0.00 85 1015.7
20260507053629 75 222 0.9 1.7 0.00 0.00 0.00 84 1015.7
20260507053127 75 179 2.6 4.3 0.00 0.00 0.00 83 1015.6
20260507052625 75 169 2.6 4.3 0.00 0.00 0.00 83 1015.8
20260507052121 76 188 1.7 3.5 0.00 0.00 0.00 82 1015.8
20260507051619 76 177 3.5 4.3 0.00 0.00 0.00 82 1015.8
20260507051115 76 185 3.5 4.3 0.00 0.00 0.00 82 1015.9
20260507050612 76 149 3.5 7.0 0.00 0.00 0.00 81 1015.8
20260507050109 76 137 2.6 5.2 0.00 0.00 0.00 81 1015.8
20260507045605 76 169 2.6 4.3 0.00 0.00 0.00 81 1016.1
20260507045103 76 133 1.7 3.5 0.00 0.00 0.00 81 1016.1
20260507044559 76 156 2.6 3.5 0.00 0.00 0.00 81 1015.8
20260507044056 76 50 0.0 5.2 0.00 0.00 0.00 81 1016.0
20260507043552 76 86 0.9 4.3 0.00 0.00 0.00 80 1015.9
20260507043049 76 119 0.0 4.3 0.00 0.00 0.00 80 1015.9
20260507042545 76 147 2.6 5.2 0.00 0.00 0.00 80 1016.0
20260507042041 77 143 2.6 5.2 0.00 0.00 0.00 80 1016.0
20260507041538 77 164 2.6 3.5 0.00 0.00 0.00 80 1016.1
20260507041035 77 106 0.9 6.1 0.00 0.00 0.00 80 1016.0
20260507040531 77 160 0.9 4.3 0.00 0.00 0.00 80 1016.1
20260507040027 77 113 1.7 6.1 0.00 0.00 0.00 80 1015.7
20260507035524 77 143 0.9 6.1 0.00 0.00 0.00 80 1015.9
20260507035020 77 137 3.5 6.1 0.00 0.00 0.00 80 1015.6
20260507034517 77 148 3.5 5.2 0.00 0.00 0.00 80 1015.7
20260507034015 77 122 2.6 7.8 0.00 0.00 0.00 81 1016.0
20260507033513 77 150 3.5 4.3 0.00 0.00 0.00 81 1015.9
20260507033010 77 126 2.6 5.2 0.00 0.00 0.00 81 1016.0
20260507032507 77 140 2.6 6.1 0.00 0.00 0.00 81 1016.2
20260507032003 77 150 1.7 6.1 0.00 0.00 0.00 81 1016.2
20260507031459 77 167 0.0 5.2 0.00 0.00 0.00 81 1016.0
20260507030956 77 178 0.9 6.1 0.00 0.00 0.00 81 1015.9
20260507030453 77 183 0.0 3.5 0.00 0.00 0.00 81 1016.0
20260507025950 77 127 2.6 4.3 0.00 0.00 0.00 81 1015.9
20260507025447 77 126 0.9 6.1 0.00 0.00 0.00 81 1015.9
20260507024945 77 122 1.7 4.3 0.00 0.00 0.00 82 1016.2
20260507024442 77 101 2.6 4.3 0.00 0.00 0.00 83 1016.2
20260507023938 77 92 1.7 4.3 0.00 0.00 0.00 83 1015.9
20260507023435 77 76 1.7 6.1 0.00 0.00 0.00 83 1016.1
20260507022932 77 99 2.6 5.2 0.00 0.00 0.00 82 1016.1
20260507022429 77 133 1.7 4.3 0.00 0.00 0.00 82 1016.4
20260507021925 77 113 2.6 7.8 0.00 0.00 0.00 82 1016.2
20260507021420 77 110 1.7 5.2 0.00 0.00 0.00 82 1016.2
20260507020918 77 102 2.6 7.8 0.00 0.00 0.00 82 1016.3
20260507020415 77 154 1.7 6.1 0.00 0.00 0.00 82 1016.0
20260507015912 77 108 3.5 5.2 0.00 0.00 0.00 81 1016.2
20260507015410 77 99 2.6 6.1 0.00 0.00 0.00 81 1016.1
20260507014907 77 115 2.6 4.3 0.00 0.00 0.00 80 1016.2
20260507014403 77 108 2.6 3.5 0.00 0.00 0.00 80 1016.1
20260507013859 77 120 0.0 6.1 0.00 0.00 0.00 80 1016.3
20260507013356 77 119 1.7 2.6 0.00 0.00 0.00 80 1016.0
20260507012854 77 104 2.6 2.6 0.00 0.00 0.00 79 1016.3
20260507012349 77 87 0.9 3.5 0.00 0.00 0.00 79 1016.0
20260507011841 77 120 0.0 4.3 0.00 0.00 0.00 79 1016.0
20260507011338 77 116 0.0 2.6 0.00 0.00 0.00 78 1016.1
20260507010832 77 100 1.7 3.5 0.00 0.00 0.00 78 1016.0
20260507010328 77 120 3.5 4.3 0.00 0.00 0.00 78 1016.0
20260507005825 77 105 2.6 4.3 0.00 0.00 0.00 78 1016.1
20260507005322 77 112 1.7 2.6 0.00 0.00 0.00 77 1016.1
20260507004819 77 44 0.0 2.6 0.00 0.00 0.00 77 1016.0
20260507004316 77 141 1.7 6.1 0.00 0.00 0.00 76 1015.8
20260507003813 78 112 1.7 4.3 0.00 0.00 0.00 75 1016.0
20260507003308 78 112 2.6 6.1 0.00 0.00 0.00 74 1015.9
20260507002803 78 96 1.7 5.2 0.00 0.00 0.00 74 1015.8
20260507002300 78 97 0.9 3.5 0.00 0.00 0.00 73 1015.8
20260507001757 78 121 1.7 4.3 0.00 0.00 0.00 72 1015.9
20260507001255 78 133 1.7 5.2 0.00 0.00 0.00 73 1015.8
20260507000751 78 110 3.5 5.2 0.00 0.00 0.00 73 1016.0
20260507000246 78 114 2.6 4.3 0.00 0.00 0.00 73 1015.6
20260506235743 79 145 0.9 5.2 0.00 0.00 0.00 72 1015.8
20260506235238 79 89 0.9 4.3 0.00 0.00 0.00 72 1015.7
20260506234736 79 160 0.9 4.3 0.00 0.00 0.00 71 1015.5
20260506234233 79 138 1.7 5.2 0.00 0.00 0.00 71 1015.8
20260506233731 80 148 1.7 7.8 0.00 0.00 0.00 69 1015.5
20260506233227 80 100 2.6 5.2 0.00 0.00 0.00 68 1015.7
20260506232724 80 95 2.6 8.7 0.00 0.00 0.00 67 1015.8
20260506232218 81 76 1.7 4.3 0.00 0.00 0.00 69 1015.8
20260506231716 81 119 1.7 7.8 0.00 0.00 0.00 68 1015.8
20260506231214 81 99 3.5 6.1 0.00 0.00 0.00 67 1015.8
20260506230710 81 140 1.7 6.1 0.00 0.00 0.00 68 1015.8
20260506230208 81 110 3.5 7.8 0.00 0.00 0.00 66 1016.0
20260506225704 81 114 4.3 9.6 0.00 0.00 0.00 66 1016.0
20260506225201 81 150 4.3 8.7 0.00 0.00 0.00 67 1015.8
20260506224657 81 110 4.3 7.0 0.00 0.00 0.00 66 1016.0
20260506224154 82 126 4.3 7.0 0.00 0.00 0.00 66 1015.7
20260506223651 82 78 0.0 7.0 0.00 0.00 0.00 66 1015.8
20260506223146 82 114 4.3 9.6 0.00 0.00 0.00 65 1015.9
20260506222644 82 113 1.7 4.3 0.00 0.00 0.00 66 1015.9
20260506222139 82 105 3.5 7.8 0.00 0.00 0.00 66 1015.6
20260506221638 82 103 7.0 11.3 0.00 0.00 0.00 66 1015.7
20260506221136 82 94 5.2 9.6 0.00 0.00 0.00 67 1015.6
20260506220632 82 103 4.3 11.3 0.00 0.00 0.00 66 1015.6
20260506220127 82 106 7.8 9.6 0.00 0.00 0.00 66 1015.9
20260506215624 82 126 4.3 10.4 0.00 0.00 0.00 66 1015.7
20260506215119 83 99 7.8 10.4 0.00 0.00 0.00 64 1015.8
20260506214616 83 81 1.7 8.7 0.00 0.00 0.00 65 1015.7
20260506214114 83 115 3.5 7.0 0.00 0.00 0.00 64 1015.4
20260506213612 83 92 2.6 13.9 0.00 0.00 0.00 66 1015.6
20260506213109 83 81 5.2 10.4 0.00 0.00 0.00 63 1015.8
20260506212606 83 100 8.7 12.2 0.00 0.00 0.00 63 1015.5
20260506212101 83 109 4.3 8.7 0.00 0.00 0.00 65 1015.7
20260506211557 83 94 4.3 13.0 0.00 0.00 0.00 64 1015.7
20260506211054 83 126 1.7 9.6 0.00 0.00 0.00 64 1015.7
20260506210550 83 108 3.5 9.6 0.00 0.00 0.00 65 1015.9
20260506210047 84 99 7.8 9.6 0.00 0.00 0.00 63 1015.6
20260506205544 83 91 1.7 8.7 0.00 0.00 0.00 66 1015.7
20260506205039 84 123 3.5 10.4 0.00 0.00 0.00 64 1015.7
20260506204537 84 92 2.6 9.6 0.00 0.00 0.00 66 1015.7
20260506204034 83 102 5.2 12.2 0.00 0.00 0.00 64 1015.6
20260506203533 83 106 2.6 7.8 0.00 0.00 0.00 64 1015.7
20260506203029 83 129 4.3 8.7 0.00 0.00 0.00 64 1015.7
20260506202526 84 108 2.6 8.7 0.00 0.00 0.00 64 1015.7
20260506202022 84 69 13.0 13.0 0.00 0.00 0.00 65 1015.8
20260506201520 83 136 5.2 9.6 0.00 0.00 0.00 66 1015.9
20260506201016 85 131 2.6 8.7 0.00 0.00 0.00 65 1015.8
20260506200513 85 109 4.3 11.3 0.00 0.00 0.00 64 1016.0